Time;durP1;ratioP1;P1;durP2;ratioP2;P2;SDS_P1;SDS_P2;PMS_P1;PMS_P2;Temp;Humidity;BMP_temperature;BMP_pressure;BME280_temperature;BME280_humidity;BME280_pressure;Samples;Min_cycle;Max_cycle;Signal;HPM_P1;HPM_P2
2022/09/09 00:01:37;;;;;;;23.20;9.02;;;;;;;28.38;39.28;100220.00;5054624;28;20083;-49
2022/09/09 00:04:14;;;;;;;24.77;8.15;;;;;;;28.32;38.56;100211.19;5054489;28;20021;-51
2022/09/09 00:06:50;;;;;;;28.83;8.63;;;;;;;28.20;39.15;100202.03;5053398;28;20111;-49
2022/09/09 00:09:19;;;;;;;28.55;8.70;;;;;;;28.22;39.14;100208.81;5042179;28;20033;-48
2022/09/09 00:11:56;;;;;;;27.77;9.15;;;;;;;27.91;39.41;100205.72;5052282;28;20049;-50
2022/09/09 00:14:48;;;;;;;27.38;8.63;;;;;;;27.81;40.43;100205.00;5038712;28;20086;-49
2022/09/09 00:17:42;;;;;;;27.83;8.93;;;;;;;27.73;40.56;100197.63;5043594;28;20041;-49
2022/09/09 00:20:21;;;;;;;25.05;8.88;;;;;;;27.78;39.82;100199.38;5035185;28;20056;-49
2022/09/09 00:23:16;;;;;;;28.55;9.40;;;;;;;27.44;40.42;100190.25;5047818;28;20104;-50
2022/09/09 00:25:54;;;;;;;26.63;9.57;;;;;;;27.25;41.00;100187.13;5018609;28;20052;-49
2022/09/09 00:28:24;;;;;;;26.73;9.80;;;;;;;26.94;41.31;100185.53;5046728;28;20499;-50
2022/09/09 00:30:51;;;;;;;29.38;9.07;;;;;;;26.87;41.79;100190.72;5050794;28;20465;-52
2022/09/09 00:33:23;;;;;;;24.40;8.75;;;;;;;26.59;42.64;100180.19;5040522;28;20033;-51
2022/09/09 00:35:52;;;;;;;26.05;8.90;;;;;;;26.54;41.87;100179.56;5049532;28;20474;-52
2022/09/09 00:38:25;;;;;;;26.67;8.82;;;;;;;26.63;42.24;100188.56;5048003;28;20395;-50
2022/09/09 00:41:46;;;;;;;31.55;9.70;;;;;;;26.45;42.29;100187.84;5045298;28;20095;-49
2022/09/09 00:44:19;;;;;;;34.92;10.02;;;;;;;26.25;42.21;100175.59;5018611;28;20041;-47
2022/09/09 00:47:09;;;;;;;29.35;8.70;;;;;;;26.25;42.65;100172.84;5033354;28;20430;-49
2022/09/09 00:49:43;;;;;;;32.53;9.35;;;;;;;26.42;42.43;100172.03;5045337;28;20025;-51
2022/09/09 00:52:26;;;;;;;30.48;9.88;;;;;;;26.21;42.09;100171.91;5046102;28;20124;-50
2022/09/09 00:54:57;;;;;;;21.75;8.68;;;;;;;26.03;42.43;100171.13;5052543;28;20391;-49
2022/09/09 00:57:31;;;;;;;31.73;9.35;;;;;;;26.21;43.19;100165.63;5033816;28;20032;-48
2022/09/09 01:00:23;;;;;;;29.15;8.82;;;;;;;26.33;42.58;100157.53;5041632;28;20028;-50
2022/09/09 01:02:56;;;;;;;24.02;9.23;;;;;;;26.26;43.01;100155.28;5041326;28;20021;-51
2022/09/09 01:05:27;;;;;;;41.75;9.98;;;;;;;26.04;43.29;100159.06;5053421;28;20024;-48
2022/09/09 01:07:54;;;;;;;31.98;8.88;;;;;;;26.08;43.85;100163.88;5042104;28;20029;-47
2022/09/09 01:10:38;;;;;;;26.08;9.32;;;;;;;25.95;43.99;100158.25;5033410;28;20384;-46
2022/09/09 01:13:14;;;;;;;42.50;11.00;;;;;;;25.66;44.94;100174.56;5047280;28;20064;-50
2022/09/09 01:15:43;;;;;;;40.88;10.40;;;;;;;25.68;45.84;100166.81;5042076;28;20065;-47
2022/09/09 01:18:14;;;;;;;36.28;10.32;;;;;;;25.15;46.99;100170.63;5047193;28;20033;-46
2022/09/09 01:21:06;;;;;;;36.35;10.23;;;;;;;24.90;47.38;100166.69;5052461;28;20502;-48
2022/09/09 01:23:46;;;;;;;25.63;9.63;;;;;;;24.81;47.37;100166.66;5033018;28;20034;-47
2022/09/09 01:26:24;;;;;;;46.50;10.68;;;;;;;24.73;48.06;100161.97;5046154;28;20439;-48
2022/09/09 01:28:55;;;;;;;36.28;9.98;;;;;;;24.40;48.30;100170.53;5044226;28;20486;-48
2022/09/09 01:31:29;;;;;;;29.77;9.38;;;;;;;24.61;48.32;100176.25;5046632;28;20110;-46
2022/09/09 01:33:56;;;;;;;41.38;10.10;;;;;;;24.58;47.95;100168.66;5046906;28;20675;-49
2022/09/09 01:36:33;;;;;;;34.88;9.55;;;;;;;24.35;48.21;100172.59;5052995;28;20108;-50
2022/09/09 01:39:00;;;;;;;31.10;9.35;;;;;;;24.14;49.24;100180.50;5053049;28;20100;-47
2022/09/09 01:41:26;;;;;;;32.15;9.63;;;;;;;24.26;49.11;100175.25;5053008;28;20068;-46
2022/09/09 01:43:54;;;;;;;34.42;11.10;;;;;;;24.02;49.16;100159.19;5052457;28;20563;-47
2022/09/09 01:46:22;;;;;;;29.58;9.82;;;;;;;23.82;49.46;100166.00;5052947;28;20033;-49
2022/09/09 01:48:53;;;;;;;40.92;10.70;;;;;;;23.64;50.27;100164.22;5045450;28;20033;-49
2022/09/09 01:51:20;;;;;;;38.17;11.10;;;;;;;23.27;51.12;100171.59;5033335;28;20025;-49
2022/09/09 01:53:47;;;;;;;36.67;10.73;;;;;;;23.22;50.59;100173.63;5035220;28;20033;-48
2022/09/09 01:56:24;;;;;;;39.75;10.45;;;;;;;23.29;50.95;100174.03;5051432;28;20100;-49
2022/09/09 01:59:11;;;;;;;37.33;10.48;;;;;;;22.91;51.63;100164.16;5052420;28;20043;-50
2022/09/09 02:01:43;;;;;;;41.45;11.73;;;;;;;22.76;52.00;100158.97;5045951;28;20048;-48
2022/09/09 02:04:38;;;;;;;36.53;11.10;;;;;;;22.75;51.96;100167.47;5048125;28;20029;-48
2022/09/09 02:07:22;;;;;;;42.28;11.30;;;;;;;22.61;52.21;100153.84;5045239;28;20542;-47
2022/09/09 02:09:57;;;;;;;36.97;10.63;;;;;;;22.39;52.59;100166.25;5043693;28;20036;-48
2022/09/09 02:12:26;;;;;;;40.53;10.90;;;;;;;22.11;53.79;100159.94;5039254;28;20025;-49
2022/09/09 02:15:23;;;;;;;37.63;11.10;;;;;;;21.82;54.51;100160.13;5033040;28;20069;-48
2022/09/09 02:17:53;;;;;;;38.45;10.38;;;;;;;21.91;54.31;100160.25;5032090;28;20049;-49
2022/09/09 02:20:20;;;;;;;39.60;11.10;;;;;;;21.50;56.37;100152.72;5047220;28;20025;-48
2022/09/09 02:22:50;;;;;;;34.45;10.77;;;;;;;21.59;56.55;100150.94;5052619;28;20025;-49
2022/09/09 02:25:21;;;;;;;40.55;11.65;;;;;;;21.59;56.25;100144.69;5033741;28;20398;-49
2022/09/09 02:27:51;;;;;;;35.28;10.93;;;;;;;21.41;55.88;100148.25;5032308;28;20099;-48
2022/09/09 02:30:20;;;;;;;34.50;10.75;;;;;;;21.39;56.54;100150.47;4997857;28;20033;-49
2022/09/09 02:32:49;;;;;;;44.88;12.10;;;;;;;21.22;57.01;100149.03;5032419;28;20495;-51
2022/09/09 02:35:22;;;;;;;40.88;11.57;;;;;;;21.02;57.29;100160.97;5032567;28;20037;-51
2022/09/09 02:37:51;;;;;;;39.53;10.95;;;;;;;21.03;57.36;100153.63;5032237;28;20107;-49
2022/09/09 02:40:21;;;;;;;37.15;12.43;;;;;;;21.01;57.40;100139.50;5032900;28;20033;-48
2022/09/09 02:42:49;;;;;;;35.20;11.05;;;;;;;20.94;57.73;100148.03;5032280;28;20029;-49
2022/09/09 02:45:19;;;;;;;38.08;10.80;;;;;;;20.78;58.60;100147.41;5032412;28;20480;-47
2022/09/09 02:48:18;;;;;;;42.33;12.38;;;;;;;20.66;58.50;100144.31;5032670;28;20044;-49
2022/09/09 02:50:58;;;;;;;43.17;10.82;;;;;;;20.82;57.85;100148.47;5032176;28;20026;-49
2022/09/09 02:53:42;;;;;;;48.67;11.57;;;;;;;20.81;58.06;100154.97;5030771;28;20025;-49
2022/09/09 02:56:18;;;;;;;47.03;12.88;;;;;;;20.52;58.82;100148.81;5041231;28;20055;-50
2022/09/09 02:58:46;;;;;;;40.53;11.27;;;;;;;20.62;58.55;100150.59;5040715;28;20495;-52
2022/09/09 03:01:13;;;;;;;46.78;11.68;;;;;;;20.50;58.76;100151.00;5030546;28;20064;-51
2022/09/09 03:03:41;;;;;;;46.15;11.85;;;;;;;20.38;59.69;100142.41;5031683;28;20025;-52
2022/09/09 03:06:07;;;;;;;43.53;11.70;;;;;;;20.23;60.44;100151.53;5032003;28;20025;-52
2022/09/09 03:08:34;;;;;;;38.47;11.40;;;;;;;20.23;60.00;100157.78;5031340;28;20120;-50
2022/09/09 03:11:03;;;;;;;44.28;12.95;;;;;;;19.99;61.20;100157.72;5031423;28;20022;-50
2022/09/09 03:13:30;;;;;;;43.80;12.77;;;;;;;19.70;61.56;100165.00;5040798;28;20029;-49
2022/09/09 03:15:56;;;;;;;44.72;11.75;;;;;;;19.70;62.32;100160.38;5035615;28;20029;-51
2022/09/09 03:18:23;;;;;;;41.30;12.30;;;;;;;19.71;61.87;100164.75;5031650;28;20033;-50
2022/09/09 03:20:49;;;;;;;44.08;12.75;;;;;;;19.69;62.00;100180.50;5031815;28;20117;-50
2022/09/09 03:23:15;;;;;;;39.28;11.75;;;;;;;19.78;61.69;100178.81;5035433;28;20071;-51
2022/09/09 03:25:52;;;;;;;45.03;12.73;;;;;;;19.66;62.11;100181.06;5031646;28;20031;-49
2022/09/09 03:28:22;;;;;;;45.78;11.90;;;;;;;19.66;62.22;100188.41;5033557;28;20396;-48
2022/09/09 03:30:48;;;;;;;46.88;12.30;;;;;;;19.57;62.59;100188.16;5051753;28;20227;-49
2022/09/09 03:33:16;;;;;;;50.63;12.38;;;;;;;19.30;63.35;100190.47;5049869;28;20383;-50
2022/09/09 03:35:51;;;;;;;43.05;13.73;;;;;;;19.46;62.89;100189.31;5035614;28;20494;-51
2022/09/09 03:38:17;;;;;;;42.55;12.43;;;;;;;18.93;65.31;100208.00;5035543;28;20053;-51
2022/09/09 03:40:55;;;;;;;45.53;12.98;;;;;;;19.02;65.08;100217.19;5035667;28;20029;-47
2022/09/09 03:43:27;;;;;;;47.17;12.70;;;;;;;18.84;65.31;100206.97;5036044;28;20029;-48
2022/09/09 03:45:56;;;;;;;49.30;11.88;;;;;;;18.70;65.78;100207.53;5042643;28;20384;-52
2022/09/09 03:48:27;;;;;;;56.08;13.15;;;;;;;18.91;65.40;100215.59;5035964;28;20698;-49
2022/09/09 03:51:00;;;;;;;49.92;13.75;;;;;;;18.73;66.01;100217.03;5035365;28;20021;-49
2022/09/09 03:53:27;;;;;;;48.38;12.93;;;;;;;18.52;66.89;100212.69;5034741;28;20026;-49
2022/09/09 03:55:55;;;;;;;52.10;12.48;;;;;;;18.48;66.91;100210.53;5036370;28;20026;-51
2022/09/09 03:58:26;;;;;;;50.05;12.63;;;;;;;18.36;66.98;100225.44;5034316;28;20057;-53
2022/09/09 04:01:08;;;;;;;53.58;13.13;;;;;;;18.17;67.34;100231.41;5054629;28;20044;-51
2022/09/09 04:03:37;;;;;;;45.72;12.88;;;;;;;18.29;66.73;100235.75;5052964;28;20379;-51
2022/09/09 04:06:07;;;;;;;54.92;13.18;;;;;;;18.21;67.00;100231.69;5035408;28;20063;-49
2022/09/09 04:08:35;;;;;;;50.55;13.38;;;;;;;18.17;66.82;100231.41;5034557;28;20450;-49
2022/09/09 04:11:06;;;;;;;51.63;12.90;;;;;;;18.20;66.58;100232.75;5053202;28;20029;-49
2022/09/09 04:13:39;;;;;;;54.90;13.55;;;;;;;18.20;66.41;100230.88;5053537;28;20036;-48
2022/09/09 04:16:06;;;;;;;48.58;12.55;;;;;;;18.18;66.23;100227.63;5035140;28;20095;-49
2022/09/09 04:18:34;;;;;;;46.38;11.85;;;;;;;18.19;65.72;100231.94;5034004;28;20164;-51
2022/09/09 04:21:01;;;;;;;52.70;12.90;;;;;;;18.15;66.21;100232.75;5035208;28;20058;-48
2022/09/09 04:23:31;;;;;;;49.55;13.02;;;;;;;18.12;65.76;100236.03;5035002;28;20025;-50
2022/09/09 04:26:00;;;;;;;55.40;13.45;;;;;;;18.11;65.98;100229.81;5052332;28;20048;-47
2022/09/09 04:28:29;;;;;;;41.63;12.35;;;;;;;18.15;65.83;100228.16;5055283;28;20040;-50
2022/09/09 04:30:59;;;;;;;52.03;13.13;;;;;;;18.15;65.93;100236.28;5036515;28;20037;-49
2022/09/09 04:33:26;;;;;;;46.50;11.88;;;;;;;18.24;65.39;100249.28;5034416;28;20164;-49
2022/09/09 04:35:54;;;;;;;48.40;12.80;;;;;;;18.30;65.53;100250.91;5035131;28;20072;-49
2022/09/09 04:38:22;;;;;;;46.05;12.90;;;;;;;18.11;66.38;100247.94;5034263;28;20053;-47
2022/09/09 04:40:51;;;;;;;50.65;13.35;;;;;;;18.05;66.28;100243.63;5046171;28;20025;-49
2022/09/09 04:43:18;;;;;;;51.78;12.85;;;;;;;18.05;66.34;100244.44;5051490;28;20031;-49
2022/09/09 04:45:48;;;;;;;50.53;13.13;;;;;;;17.93;67.29;100246.56;5053999;28;20121;-49
2022/09/09 04:48:15;;;;;;;52.95;12.68;;;;;;;18.02;66.84;100246.84;5033764;28;20112;-49
2022/09/09 04:50:41;;;;;;;43.40;12.85;;;;;;;18.00;66.97;100249.84;5034671;28;20028;-51
2022/09/09 04:53:07;;;;;;;46.47;12.13;;;;;;;17.88;67.10;100246.56;5033564;28;20018;-49
2022/09/09 04:55:35;;;;;;;54.05;12.75;;;;;;;17.73;67.90;100241.94;5044146;28;20059;-49
2022/09/09 04:58:06;;;;;;;56.90;13.63;;;;;;;17.66;68.06;100247.59;5049387;28;20037;-48
2022/09/09 05:00:34;;;;;;;56.65;12.93;;;;;;;17.56;68.12;100246.75;5050853;28;20025;-48
2022/09/09 05:03:04;;;;;;;56.75;13.50;;;;;;;17.52;68.65;100241.03;5033784;28;20025;-48
2022/09/09 05:05:30;;;;;;;54.60;14.07;;;;;;;17.52;69.00;100240.22;5033934;28;20033;-49
2022/09/09 05:08:05;;;;;;;57.50;13.88;;;;;;;17.41;69.20;100237.50;5033602;28;20053;-50
2022/09/09 05:10:32;;;;;;;56.17;14.30;;;;;;;17.36;69.29;100247.47;5033890;28;20469;-49
2022/09/09 05:12:58;;;;;;;46.08;12.15;;;;;;;17.41;68.90;100236.69;5033744;28;20064;-49
2022/09/09 05:15:24;;;;;;;47.97;12.90;;;;;;;17.52;68.52;100235.63;5035459;28;20048;-51
2022/09/09 05:17:54;;;;;;;43.05;11.88;;;;;;;17.50;67.92;100231.56;5035919;28;20021;-51
2022/09/09 05:20:21;;;;;;;49.38;13.13;;;;;;;17.49;68.11;100241.59;5045693;28;20036;-51
2022/09/09 05:22:47;;;;;;;40.00;12.32;;;;;;;17.49;67.84;100229.94;5053136;28;20395;-49
2022/09/09 05:25:13;;;;;;;50.78;12.63;;;;;;;17.34;68.45;100228.00;5049325;28;20028;-49
2022/09/09 05:27:39;;;;;;;42.38;12.73;;;;;;;17.49;68.25;100225.34;5033415;28;20120;-52
2022/09/09 05:30:06;;;;;;;41.17;12.48;;;;;;;17.47;67.98;100224.78;5033576;28;20021;-52
2022/09/09 05:32:33;;;;;;;54.47;13.13;;;;;;;17.53;67.67;100226.44;5033073;28;20025;-49
2022/09/09 05:35:01;;;;;;;50.20;13.23;;;;;;;17.61;67.15;100236.75;5034660;28;20021;-50
2022/09/09 05:37:27;;;;;;;45.00;12.55;;;;;;;17.42;67.95;100231.00;5053014;28;20065;-48
2022/09/09 05:39:54;;;;;;;45.38;12.32;;;;;;;17.26;68.97;100232.03;5039678;28;20080;-50
2022/09/09 05:42:20;;;;;;;43.67;13.27;;;;;;;17.28;68.61;100234.47;5033296;28;20060;-49
2022/09/09 05:44:46;;;;;;;50.97;13.30;;;;;;;17.23;68.77;100226.34;5033559;28;20037;-51
2022/09/09 05:47:14;;;;;;;58.28;13.57;;;;;;;17.17;68.87;100235.53;5044392;28;20037;-50
2022/09/09 05:49:40;;;;;;;53.70;13.93;;;;;;;17.13;69.10;100241.44;5041292;28;20029;-49
2022/09/09 05:52:07;;;;;;;52.97;13.55;;;;;;;17.16;69.26;100237.41;5033078;28;20032;-50
2022/09/09 05:54:33;;;;;;;60.00;14.00;;;;;;;17.28;68.94;100231.78;5042458;28;20075;-49
2022/09/09 05:56:59;;;;;;;41.70;11.98;;;;;;;17.06;69.63;100235.47;5052044;28;20457;-49
2022/09/09 05:59:25;;;;;;;50.50;13.20;;;;;;;17.17;69.13;100238.22;5039513;28;20082;-48
2022/09/09 06:01:52;;;;;;;58.83;13.63;;;;;;;17.10;68.85;100230.31;5031218;28;20029;-52
2022/09/09 06:04:20;;;;;;;48.67;12.88;;;;;;;16.97;69.40;100230.81;5012624;28;20480;-49
2022/09/09 06:06:46;;;;;;;50.70;12.63;;;;;;;16.96;69.42;100238.13;5033069;28;20029;-49
2022/09/09 06:09:13;;;;;;;49.15;12.10;;;;;;;16.96;69.43;100235.41;5033005;28;20033;-49
2022/09/09 06:11:40;;;;;;;47.85;12.43;;;;;;;17.08;68.83;100237.91;5032970;28;20501;-48
2022/09/09 06:14:07;;;;;;;52.17;13.57;;;;;;;17.07;68.72;100237.09;5040497;28;20044;-49
2022/09/09 06:16:34;;;;;;;58.03;13.43;;;;;;;17.03;68.83;100238.69;5052483;28;20025;-48
2022/09/09 06:19:03;;;;;;;45.03;12.55;;;;;;;17.06;68.86;100242.78;5044758;28;20026;-48
2022/09/09 06:21:32;;;;;;;50.42;12.25;;;;;;;17.24;68.14;100234.19;5031271;28;20396;-48
2022/09/09 06:23:59;;;;;;;54.10;13.00;;;;;;;17.10;68.22;100233.03;5037903;28;20060;-50
2022/09/09 06:26:30;;;;;;;52.25;12.98;;;;;;;17.22;67.73;100236.34;5051117;28;20037;-51
2022/09/09 06:28:57;;;;;;;50.50;12.02;;;;;;;17.17;67.66;100238.22;5046182;28;20022;-49
2022/09/09 06:31:28;;;;;;;50.95;14.18;;;;;;;17.13;67.68;100227.13;5032232;28;20209;-49
2022/09/09 06:33:54;;;;;;;56.63;12.57;;;;;;;17.26;67.13;100223.09;5030990;28;20029;-50
2022/09/09 06:36:23;;;;;;;47.80;11.77;;;;;;;17.25;67.22;100218.78;5032016;28;20033;-50
2022/09/09 06:38:50;;;;;;;42.80;11.80;;;;;;;17.24;66.97;100219.84;5032975;28;20025;-52
2022/09/09 06:41:19;;;;;;;44.45;12.90;;;;;;;17.19;67.62;100214.44;5032311;28;20101;-49
2022/09/09 06:43:46;;;;;;;43.40;12.57;;;;;;;17.12;68.01;100231.72;5032316;28;20037;-49
2022/09/09 06:46:13;;;;;;;50.08;12.38;;;;;;;17.17;68.15;100232.81;5035730;28;20056;-50
2022/09/09 06:48:41;;;;;;;45.72;11.75;;;;;;;17.03;68.73;100230.56;5052544;28;20033;-49
2022/09/09 06:51:11;;;;;;;50.78;12.95;;;;;;;17.05;68.92;100233.84;5053468;28;20029;-51
2022/09/09 06:53:38;;;;;;;46.60;12.43;;;;;;;17.12;68.95;100237.13;5051401;28;20053;-51
2022/09/09 06:56:11;;;;;;;45.00;12.18;;;;;;;17.15;68.39;100231.16;5051263;28;20387;-49
2022/09/09 06:58:44;;;;;;;49.65;11.82;;;;;;;17.05;68.51;100225.75;5045000;28;20430;-50
2022/09/09 07:01:18;;;;;;;48.78;11.20;;;;;;;17.05;68.41;100228.44;5031895;28;20021;-52
2022/09/09 07:03:50;;;;;;;41.85;12.02;;;;;;;17.12;68.08;100230.91;5031334;28;20076;-51
2022/09/09 07:06:23;;;;;;;45.13;11.57;;;;;;;17.09;67.71;100226.81;5031810;28;20053;-48
2022/09/09 07:08:58;;;;;;;49.05;12.10;;;;;;;17.13;67.66;100227.13;5032001;28;20029;-49
2022/09/09 07:11:31;;;;;;;58.00;14.20;;;;;;;17.02;67.78;100210.03;5031877;28;20030;-49
2022/09/09 07:13:58;;;;;;;51.22;11.73;;;;;;;17.11;67.52;100213.88;5032187;28;20136;-51
2022/09/09 07:16:27;;;;;;;51.45;12.23;;;;;;;17.10;67.01;100206.00;5031958;28;20025;-51
2022/09/09 07:19:02;;;;;;;46.00;12.43;;;;;;;17.12;67.15;100203.84;5045125;28;20033;-51
2022/09/09 07:21:30;;;;;;;47.55;13.40;;;;;;;17.15;67.18;100195.19;5049006;28;20033;-51
2022/09/09 07:23:58;;;;;;;53.92;12.75;;;;;;;17.19;66.80;100195.50;5050989;28;20029;-52
2022/09/09 07:26:30;;;;;;;55.47;13.20;;;;;;;17.17;67.11;100182.25;5047848;28;20530;-49
2022/09/09 07:28:57;;;;;;;44.95;12.25;;;;;;;17.03;67.45;100181.09;5051307;28;20032;-49
2022/09/09 07:31:26;;;;;;;56.88;11.80;;;;;;;16.94;68.18;100170.00;5036048;28;20068;-52
2022/09/09 07:33:53;;;;;;;47.10;11.93;;;;;;;16.93;68.57;100173.75;5030800;28;20030;-49
2022/09/09 07:36:30;;;;;;;56.70;13.32;;;;;;;16.88;69.07;100168.34;5031089;28;20036;-48
2022/09/09 07:39:09;;;;;;;45.42;11.90;;;;;;;16.91;68.97;100175.09;5031314;28;20049;-48
2022/09/09 07:41:41;;;;;;;47.90;12.57;;;;;;;16.82;69.50;100172.94;5033639;28;20182;-48
2022/09/09 07:44:13;;;;;;;54.55;12.05;;;;;;;16.80;70.10;100163.44;5030967;28;20035;-49
2022/09/09 07:46:40;;;;;;;62.20;13.15;;;;;;;16.97;69.38;100153.22;5046345;28;20031;-49
2022/09/09 07:49:08;;;;;;;54.80;12.40;;;;;;;16.98;69.35;100146.75;5049536;28;20061;-49
2022/09/09 07:51:36;;;;;;;46.30;11.77;;;;;;;16.79;70.15;100153.72;5050964;28;20021;-48
2022/09/09 07:54:06;;;;;;;60.33;13.25;;;;;;;16.79;70.59;100148.31;5040184;28;20068;-49
2022/09/09 07:56:33;;;;;;;41.22;11.23;;;;;;;16.82;70.75;100145.91;5031302;28;20537;-49
2022/09/09 07:59:00;;;;;;;53.03;12.88;;;;;;;16.76;71.04;100141.53;5031921;28;20509;-48
2022/09/09 08:01:37;;;;;;;51.47;13.35;;;;;;;16.92;70.67;100142.41;5031630;28;20030;-48
2022/09/09 08:04:06;;;;;;;53.03;13.60;;;;;;;16.79;71.17;100135.59;5031815;28;20045;-51
2022/09/09 08:06:39;;;;;;;50.83;12.15;;;;;;;16.75;71.17;100133.69;5031385;28;20030;-48
2022/09/09 08:09:07;;;;;;;48.03;13.13;;;;;;;16.73;71.45;100130.44;5032533;28;20057;-50
2022/09/09 08:11:35;;;;;;;46.97;12.02;;;;;;;16.63;71.93;100136.56;5031056;28;20044;-47
2022/09/09 08:14:03;;;;;;;46.67;12.63;;;;;;;16.69;71.83;100140.13;5037022;28;20060;-48
2022/09/09 08:16:33;;;;;;;55.95;12.45;;;;;;;16.61;72.32;100147.66;5050635;28;20033;-51
2022/09/09 08:18:59;;;;;;;51.75;12.32;;;;;;;16.50;72.52;100135.16;5045442;28;20030;-47
2022/09/09 08:21:31;;;;;;;47.13;12.35;;;;;;;16.34;73.62;100141.56;5034356;28;20087;-47
2022/09/09 08:24:00;;;;;;;60.40;13.25;;;;;;;16.47;73.22;100140.28;5038186;28;20029;-47
2022/09/09 08:26:38;;;;;;;54.10;12.77;;;;;;;16.41;73.34;100149.44;5052642;28;20467;-47
2022/09/09 08:29:06;;;;;;;43.15;12.60;;;;;;;16.43;72.97;100148.06;5047189;28;20064;-47
2022/09/09 08:31:38;;;;;;;53.47;12.77;;;;;;;16.28;73.36;100146.13;5034261;28;20530;-47
2022/09/09 08:34:05;;;;;;;57.80;14.10;;;;;;;16.22;73.15;100146.34;5038635;28;20036;-48
2022/09/09 08:36:50;;;;;;;60.65;13.27;;;;;;;16.19;72.86;100144.16;5054012;28;20025;-49
2022/09/09 08:39:19;;;;;;;49.78;12.90;;;;;;;16.12;73.05;100136.28;5051115;28;20132;-48
2022/09/09 08:42:03;;;;;;;49.28;13.23;;;;;;;16.11;72.95;100134.66;5053969;28;20028;-48
2022/09/09 08:44:35;;;;;;;47.72;12.55;;;;;;;16.12;72.92;100130.06;5036508;28;20554;-51
2022/09/09 08:47:34;;;;;;;58.55;13.10;;;;;;;16.18;72.75;100124.44;5053540;28;20336;-48
2022/09/09 08:50:26;;;;;;;47.97;12.77;;;;;;;16.16;73.09;100112.25;5053821;28;20628;-49
2022/09/09 08:53:01;;;;;;;51.38;13.50;;;;;;;16.26;72.78;100115.84;5051374;28;20032;-48
2022/09/09 08:55:55;;;;;;;46.58;11.50;;;;;;;16.19;73.02;100109.06;5052046;28;20064;-47
2022/09/09 08:58:35;;;;;;;62.05;12.57;;;;;;;16.12;73.24;100113.88;5052641;28;20127;-48
2022/09/09 09:01:04;;;;;;;57.33;12.35;;;;;;;16.22;72.49;100119.34;5053588;28;20029;-48
2022/09/09 09:03:45;;;;;;;57.92;13.73;;;;;;;16.23;72.12;100110.16;5051270;28;20037;-47
2022/09/09 09:06:39;;;;;;;55.67;13.25;;;;;;;16.08;71.34;100116.28;5053495;28;20036;-48
2022/09/09 09:09:36;;;;;;;52.38;13.10;;;;;;;15.98;71.48;100111.63;5047426;28;20037;-48
2022/09/09 09:12:18;;;;;;;42.00;12.18;;;;;;;16.09;71.42;100107.91;5033611;28;20040;-48
2022/09/09 09:14:46;;;;;;;60.25;12.65;;;;;;;16.09;71.87;100107.91;5034034;28;20037;-48
2022/09/09 09:17:23;;;;;;;48.90;12.93;;;;;;;16.13;71.91;100112.81;5033423;28;20029;-48
2022/09/09 09:19:50;;;;;;;59.00;12.98;;;;;;;16.09;72.57;100116.00;5033430;28;20025;-47
2022/09/09 09:22:33;;;;;;;52.85;13.43;;;;;;;16.01;73.04;100108.41;5033173;28;20056;-50
2022/09/09 09:25:16;;;;;;;47.53;12.57;;;;;;;16.12;72.40;100113.88;5045766;28;20057;-50
2022/09/09 09:27:48;;;;;;;50.95;12.57;;;;;;;16.18;72.15;100096.63;5048084;28;20043;-48
2022/09/09 09:30:18;;;;;;;45.15;12.95;;;;;;;16.17;72.60;100111.22;5032946;28;20025;-51
2022/09/09 09:33:10;;;;;;;64.50;13.13;;;;;;;16.14;72.88;100101.72;5033186;28;20030;-50
2022/09/09 09:35:36;;;;;;;59.65;13.30;;;;;;;15.88;73.95;100103.47;5033239;28;20511;-49
2022/09/09 09:38:22;;;;;;;62.03;14.07;;;;;;;15.97;73.28;100106.47;5032843;28;20408;-48
2022/09/09 09:40:50;;;;;;;66.68;14.02;;;;;;;15.74;74.02;100104.97;5033798;28;20021;-50
2022/09/09 09:43:26;;;;;;;53.63;13.40;;;;;;;15.93;73.80;100100.78;5033560;28;20053;-50
2022/09/09 09:45:52;;;;;;;55.50;13.07;;;;;;;16.00;73.75;100100.56;5040600;28;20029;-48
2022/09/09 09:48:18;;;;;;;69.15;13.93;;;;;;;15.96;74.13;100102.97;5052552;28;20033;-49
2022/09/09 09:50:49;;;;;;;56.40;13.63;;;;;;;16.05;73.68;100097.91;5051564;28;20036;-48
2022/09/09 09:53:28;;;;;;;58.20;13.35;;;;;;;15.84;73.67;100100.47;5052495;28;20391;-50
2022/09/09 09:56:01;;;;;;;59.50;13.32;;;;;;;15.91;72.71;100102.94;5050227;28;20078;-47
2022/09/09 09:58:33;;;;;;;54.97;12.48;;;;;;;15.94;72.56;100083.53;5032740;28;20079;-48
2022/09/09 10:01:01;;;;;;;59.67;13.60;;;;;;;15.83;73.04;100084.53;5032537;28;20096;-47
2022/09/09 10:03:32;;;;;;;46.38;12.00;;;;;;;16.03;72.19;100079.25;5032392;28;20061;-48
2022/09/09 10:05:58;;;;;;;63.78;13.80;;;;;;;16.00;72.85;100079.78;5032455;28;20175;-48
2022/09/09 10:08:26;;;;;;;59.10;13.40;;;;;;;15.90;73.13;100078.91;5048213;28;20032;-48
2022/09/09 10:10:56;;;;;;;52.35;12.88;;;;;;;15.70;73.91;100068.78;5050092;28;20060;-50
2022/09/09 10:13:59;;;;;;;58.05;13.25;;;;;;;15.77;73.57;100074.78;5051147;28;20361;-48
2022/09/09 10:16:48;;;;;;;44.83;12.77;;;;;;;15.59;73.87;100076.75;5050401;28;20090;-49
2022/09/09 10:19:20;;;;;;;61.58;14.63;;;;;;;15.55;73.96;100078.34;5052257;28;20080;-50
2022/09/09 10:22:14;;;;;;;57.72;12.80;;;;;;;15.61;74.22;100081.09;5038017;28;20022;-49
2022/09/09 10:25:11;;;;;;;50.92;13.25;;;;;;;15.71;73.18;100075.78;5032339;28;20368;-50
2022/09/09 10:28:16;;;;;;;47.38;11.50;;;;;;;15.73;73.42;100073.66;5035472;28;20064;-49
2022/09/09 10:31:08;;;;;;;40.72;12.18;;;;;;;15.71;73.54;100067.69;5032642;28;20029;-47
2022/09/09 10:34:02;;;;;;;41.22;11.38;;;;;;;15.87;72.73;100065.91;5022957;28;20037;-48
2022/09/09 10:36:29;;;;;;;58.80;13.15;;;;;;;15.84;72.95;100073.47;5032326;28;20481;-47
2022/09/09 10:39:26;;;;;;;48.97;11.88;;;;;;;15.84;73.06;100076.19;5032064;28;20033;-49
2022/09/09 10:42:03;;;;;;;52.30;13.02;;;;;;;15.86;72.96;100072.41;5041344;28;20103;-48
2022/09/09 10:44:53;;;;;;;55.30;13.43;;;;;;;15.90;72.91;100078.91;5051730;28;20033;-48
2022/09/09 10:47:54;;;;;;;60.35;14.10;;;;;;;15.88;73.05;100071.09;5040749;28;20031;-49
2022/09/09 10:50:43;;;;;;;59.40;13.07;;;;;;;15.82;73.18;100070.25;5041874;28;20725;-48
2022/09/09 10:53:34;;;;;;;61.33;14.80;;;;;;;15.80;73.51;100069.66;5039231;28;20037;-49
2022/09/09 10:56:10;;;;;;;58.30;11.98;;;;;;;15.83;73.19;100066.47;5030258;28;20030;-50
2022/09/09 10:58:43;;;;;;;55.85;13.50;;;;;;;15.85;73.12;100060.78;5036952;28;20080;-47
2022/09/09 11:01:37;;;;;;;56.55;12.15;;;;;;;15.73;73.60;100055.59;5035479;28;20045;-48
2022/09/09 11:04:39;;;;;;;49.60;13.25;;;;;;;15.66;73.73;100040.72;5045381;28;20025;-50
2022/09/09 11:07:14;;;;;;;54.70;12.68;;;;;;;15.63;73.03;100039.31;5042839;28;20112;-47
2022/09/09 11:09:50;;;;;;;58.13;12.65;;;;;;;15.56;73.06;100036.81;5035533;28;20163;-47
2022/09/09 11:12:20;;;;;;;57.97;12.95;;;;;;;15.50;73.07;100029.78;5040427;28;20024;-47
2022/09/09 11:14:54;;;;;;;63.38;14.45;;;;;;;15.43;73.31;100037.25;5041099;28;20087;-47
2022/09/09 11:17:36;;;;;;;64.65;14.02;;;;;;;15.46;73.17;100027.84;5050979;28;20064;-47
2022/09/09 11:20:05;;;;;;;52.80;14.05;;;;;;;15.58;72.80;100031.16;5050556;28;20033;-47
2022/09/09 11:22:40;;;;;;;60.97;13.45;;;;;;;15.57;73.03;100022.25;5051308;28;20025;-48
2022/09/09 11:25:06;;;;;;;;;;;;;;;15.52;72.99;100038.41;5043025;28;20475;-47
2022/09/09 11:27:38;;;;;;;52.80;13.38;;;;;;;15.57;72.85;100026.84;5035860;28;19982;-47
2022/09/09 11:30:40;;;;;;;55.40;13.38;;;;;;;15.65;72.56;100029.06;5049808;28;20049;-47
2022/09/09 11:33:37;;;;;;;51.05;13.30;;;;;;;15.64;72.57;100018.56;5047136;28;20029;-47
2022/09/09 11:36:41;;;;;;;49.55;13.25;;;;;;;15.55;72.96;100010.94;5044535;28;20033;-47
2022/09/09 11:39:48;;;;;;;46.25;12.75;;;;;;;15.67;72.59;100005.38;5029930;28;20377;-47